createdAt,value
2022-08-04T00:00:37.648Z,1.90
2022-08-04T00:03:42.587Z,1.65
2022-08-04T00:06:59.630Z,1.70
2022-08-04T00:10:12.748Z,1.40
2022-08-04T00:13:16.563Z,2.45
2022-08-04T00:16:19.646Z,2.17
2022-08-04T00:19:26.756Z,1.60
2022-08-04T00:22:30.644Z,1.73
2022-08-04T00:25:32.740Z,1.90
2022-08-04T00:28:34.596Z,2.45
2022-08-04T00:31:56.001Z,2.40
2022-08-04T00:34:58.593Z,1.60
2022-08-04T00:38:00.581Z,1.85
2022-08-04T00:41:07.654Z,1.60
2022-08-04T00:44:35.645Z,1.98
2022-08-04T00:48:08.611Z,2.17
2022-08-04T00:51:24.640Z,1.73
2022-08-04T00:54:57.600Z,2.05
2022-08-04T00:58:25.595Z,2.70
2022-08-04T01:01:47.668Z,2.53
2022-08-04T01:05:07.666Z,2.20
2022-08-04T01:08:41.678Z,2.85
2022-08-04T01:12:01.787Z,2.13
2022-08-04T01:15:08.615Z,2.40
2022-08-04T01:18:15.672Z,2.28
2022-08-04T01:21:22.767Z,2.60
2022-08-04T01:24:29.619Z,3.20
2022-08-04T01:27:45.670Z,2.35
2022-08-04T01:30:49.612Z,2.30
2022-08-04T01:34:03.192Z,2.15
2022-08-04T01:37:21.856Z,2.20
2022-08-04T01:40:22.701Z,2.60
2022-08-04T01:43:23.667Z,2.80
2022-08-04T01:46:23.794Z,2.15
2022-08-04T01:49:19.777Z,2.30
2022-08-04T01:52:22.635Z,2.55
2022-08-04T01:55:55.137Z,2.35
2022-08-04T01:58:50.707Z,2.53
2022-08-04T02:01:51.763Z,2.58
2022-08-04T02:04:52.718Z,2.92
2022-08-04T02:08:27.700Z,2.53
2022-08-04T02:11:35.654Z,2.78
2022-08-04T02:14:47.802Z,3.70
2022-08-04T02:17:57.721Z,2.38
2022-08-04T02:21:03.643Z,2.50
2022-08-04T02:24:02.818Z,2.90
2022-08-04T02:27:06.717Z,2.30
2022-08-04T02:30:17.674Z,2.50
2022-08-04T02:33:22.723Z,2.78
2022-08-04T02:36:28.647Z,2.35
2022-08-04T02:39:41.430Z,2.60
2022-08-04T02:42:50.659Z,2.30
2022-08-04T02:45:55.826Z,2.00
2022-08-04T02:48:59.722Z,2.80
2022-08-04T02:52:05.721Z,2.30
2022-08-04T02:55:09.716Z,2.33
2022-08-04T02:58:06.809Z,2.58
2022-08-04T03:01:00.745Z,2.50
2022-08-04T03:04:26.691Z,2.20
2022-08-04T03:07:42.679Z,2.40
2022-08-04T03:11:10.844Z,4.95
2022-08-04T03:14:26.675Z,2.05
2022-08-04T03:17:52.359Z,2.40
2022-08-04T03:21:19.734Z,4.05
2022-08-04T03:24:26.866Z,3.10
2022-08-04T03:27:56.671Z,3.03
2022-08-04T03:31:15.846Z,2.80
2022-08-04T03:34:22.740Z,4.38
2022-08-04T03:37:46.710Z,2.95
2022-08-04T03:41:06.693Z,2.65
2022-08-04T03:44:13.859Z,2.97
2022-08-04T03:47:23.848Z,3.08
2022-08-04T03:51:35.352Z,3.42
2022-08-04T03:54:44.880Z,2.63
2022-08-04T03:58:05.845Z,3.53
2022-08-04T04:01:22.778Z,3.15
2022-08-04T04:04:34.869Z,2.60
2022-08-04T04:07:38.720Z,2.65
2022-08-04T04:10:49.747Z,3.25
2022-08-04T04:14:02.709Z,2.22
2022-08-04T04:17:24.768Z,2.30
2022-08-04T04:21:03.792Z,2.20
2022-08-04T04:24:16.777Z,2.08
2022-08-04T04:27:41.734Z,2.67
2022-08-04T04:30:57.889Z,3.00
2022-08-04T04:34:20.810Z,2.50
2022-08-04T04:37:28.093Z,2.47
2022-08-04T04:41:06.887Z,3.53
2022-08-04T04:44:45.726Z,2.25
2022-08-04T04:48:17.796Z,3.28
2022-08-04T04:51:33.796Z,2.80
2022-08-04T04:54:42.802Z,3.28
2022-08-04T04:57:54.695Z,3.10
2022-08-04T05:01:21.798Z,2.25
2022-08-04T05:04:58.740Z,3.17
2022-08-04T05:08:45.086Z,2.53
2022-08-04T05:12:02.789Z,3.33
2022-08-04T05:15:09.756Z,3.83
2022-08-04T05:18:12.798Z,3.45
2022-08-04T05:21:31.807Z,3.35
2022-08-04T05:24:35.782Z,3.38
2022-08-04T05:27:44.910Z,3.08
2022-08-04T05:30:57.123Z,2.97
2022-08-04T05:34:13.850Z,3.28
2022-08-04T05:37:14.915Z,2.75
2022-08-04T05:40:12.815Z,3.03
2022-08-04T05:43:15.115Z,2.70
2022-08-04T05:46:10.135Z,2.20
2022-08-04T05:49:10.818Z,2.35
2022-08-04T05:52:17.844Z,2.28
2022-08-04T05:55:57.577Z,2.40
2022-08-04T05:58:43.844Z,2.50
2022-08-04T06:01:56.424Z,2.05
2022-08-04T06:05:02.800Z,2.13
2022-08-04T06:08:12.553Z,2.08
2022-08-04T06:11:18.763Z,1.77
2022-08-04T06:14:22.877Z,1.80
2022-08-04T06:18:35.172Z,1.60
2022-08-04T06:21:01.783Z,2.22
2022-08-04T06:24:06.771Z,1.08
2022-08-04T06:27:08.800Z,1.70
2022-08-04T06:30:13.836Z,1.10
2022-08-04T06:33:31.796Z,1.15
2022-08-04T06:36:32.941Z,1.33
2022-08-04T06:39:37.914Z,1.48
2022-08-04T06:42:40.905Z,1.00
2022-08-04T06:45:41.857Z,1.27
2022-08-04T06:48:44.803Z,1.20
2022-08-04T06:51:49.492Z,1.52
2022-08-04T06:54:50.947Z,1.00
2022-08-04T06:57:57.447Z,0.90
2022-08-04T07:01:00.963Z,1.48
2022-08-04T07:04:02.884Z,1.38
2022-08-04T07:07:03.879Z,1.13
2022-08-04T07:10:04.838Z,1.08
2022-08-04T07:13:05.825Z,1.42
2022-08-04T07:16:08.977Z,1.60
2022-08-04T07:19:11.568Z,0.80
2022-08-04T07:22:18.055Z,1.00
2022-08-04T07:25:57.321Z,0.95
2022-08-04T07:28:49.829Z,1.08
2022-08-04T07:31:51.836Z,1.13
2022-08-04T07:34:53.828Z,1.02
2022-08-04T07:37:56.833Z,1.00
2022-08-04T07:41:00.843Z,1.23
2022-08-04T07:44:01.833Z,1.17
2022-08-04T07:47:02.900Z,1.13
2022-08-04T07:50:03.851Z,1.80
2022-08-04T07:53:54.741Z,0.90
2022-08-04T07:56:28.865Z,1.10
2022-08-04T07:59:29.846Z,1.17
2022-08-04T08:02:33.852Z,1.05
2022-08-04T08:05:36.852Z,1.05
2022-08-04T08:08:57.875Z,0.85
2022-08-04T08:12:37.542Z,0.93
2022-08-04T08:15:25.870Z,0.70
2022-08-04T08:18:26.920Z,1.10
2022-08-04T08:21:27.835Z,1.02
2022-08-04T08:24:29.942Z,0.80
2022-08-04T08:27:30.905Z,0.82
2022-08-04T08:30:32.823Z,0.60
2022-08-04T08:33:35.904Z,1.73
2022-08-04T08:36:42.947Z,0.73
2022-08-04T08:39:56.045Z,0.82
2022-08-04T08:44:03.854Z,1.08
2022-08-04T08:47:13.960Z,1.08
2022-08-04T08:50:40.959Z,0.60
2022-08-04T08:54:16.958Z,0.90
2022-08-04T08:57:37.913Z,0.75
2022-08-04T09:01:33.990Z,0.82
2022-08-04T09:05:00.083Z,0.68
2022-08-04T09:08:18.969Z,0.55
2022-08-04T09:11:27.961Z,0.50
2022-08-04T09:15:04.920Z,0.50
2022-08-04T09:18:32.075Z,0.55
2022-08-04T09:21:35.960Z,0.70
2022-08-04T09:25:01.956Z,0.70
2022-08-04T09:28:09.744Z,0.73
2022-08-04T09:31:12.915Z,0.60
2022-08-04T09:34:25.182Z,0.70
2022-08-04T09:37:45.684Z,0.55
2022-08-04T09:40:58.995Z,0.60
2022-08-04T09:44:51.365Z,0.50
2022-08-04T09:48:12.926Z,0.57
2022-08-04T09:51:18.976Z,0.73
2022-08-04T09:54:41.927Z,0.32
2022-08-04T09:58:14.919Z,0.73
2022-08-04T10:01:30.321Z,0.50
2022-08-04T10:04:32.989Z,0.70
2022-08-04T10:08:16.635Z,0.60
2022-08-04T10:11:25.006Z,0.98
2022-08-04T10:14:45.967Z,0.40
2022-08-04T10:18:31.946Z,0.65
2022-08-04T10:22:26.913Z,0.50
2022-08-04T10:25:38.980Z,0.63
2022-08-04T10:31:58.132Z,0.50
2022-08-04T10:35:13.121Z,0.80
2022-08-04T10:38:27.954Z,0.80
2022-08-04T10:42:00.052Z,0.60
2022-08-04T10:45:05.979Z,0.50
2022-08-04T10:48:34.170Z,0.40
2022-08-04T10:51:57.636Z,0.60
2022-08-04T10:56:07.544Z,0.60
2022-08-04T10:58:55.975Z,0.60
2022-08-04T11:02:03.767Z,0.50
2022-08-04T11:05:25.963Z,0.63
2022-08-04T11:08:40.964Z,0.70
2022-08-04T11:12:00.247Z,0.82
2022-08-04T11:15:23.032Z,0.68
2022-08-04T11:18:37.041Z,0.70
2022-08-04T11:21:48.247Z,0.70
2022-08-04T11:25:28.151Z,0.98
2022-08-04T11:29:07.998Z,0.70
2022-08-04T11:32:13.064Z,1.02
2022-08-04T11:35:19.035Z,0.73
2022-08-04T11:38:51.862Z,1.10
2022-08-04T11:42:10.069Z,0.73
2022-08-04T11:45:17.029Z,1.65
2022-08-04T11:48:28.992Z,1.00
2022-08-04T11:51:32.112Z,0.70
2022-08-04T11:54:35.001Z,1.10
2022-08-04T11:57:38.180Z,0.80
2022-08-04T12:00:42.990Z,0.70
2022-08-04T12:03:59.718Z,0.73
2022-08-04T12:07:41.408Z,0.88
2022-08-04T12:14:02.004Z,0.65
2022-08-04T12:17:14.169Z,0.80
2022-08-04T12:20:38.170Z,0.70
2022-08-04T12:23:49.093Z,0.90
2022-08-04T12:27:06.007Z,0.90
2022-08-04T12:30:58.759Z,0.75
2022-08-04T12:34:04.762Z,1.65
2022-08-04T12:37:15.079Z,1.73
2022-08-04T12:40:32.204Z,0.70
2022-08-04T12:43:54.102Z,0.70
2022-08-04T12:47:27.723Z,0.70
2022-08-04T12:50:25.257Z,0.70
2022-08-04T12:53:32.111Z,0.50
2022-08-04T12:56:41.100Z,0.75
2022-08-04T12:59:42.068Z,0.60
2022-08-04T13:03:01.136Z,0.63
2022-08-04T13:06:06.052Z,1.40
2022-08-04T13:09:02.068Z,0.88
2022-08-04T13:12:34.062Z,0.77
2022-08-04T13:15:47.002Z,0.77
2022-08-04T13:19:05.267Z,0.90
2022-08-04T13:26:40.579Z,1.02
2022-08-04T13:28:34.426Z,0.60
2022-08-04T13:31:37.228Z,0.95
2022-08-04T13:34:38.082Z,0.60
2022-08-04T13:37:45.148Z,0.70
2022-08-04T13:40:47.137Z,0.75
2022-08-04T13:44:19.995Z,1.05
2022-08-04T13:47:26.272Z,0.75
2022-08-04T13:50:34.068Z,0.70
2022-08-04T13:53:35.239Z,0.85
2022-08-04T13:56:37.126Z,1.10
2022-08-04T13:59:41.128Z,0.98
2022-08-04T14:02:58.139Z,1.27
2022-08-04T14:06:00.243Z,0.68
2022-08-04T14:09:09.200Z,1.00
2022-08-04T14:12:38.512Z,1.40
2022-08-04T14:16:02.262Z,0.75
2022-08-04T14:19:14.089Z,0.85
2022-08-04T14:22:15.293Z,0.82
2022-08-04T14:25:21.124Z,0.68
2022-08-04T14:28:22.402Z,1.00
2022-08-04T14:31:35.091Z,0.98
2022-08-04T14:34:41.482Z,0.80
2022-08-04T14:37:44.117Z,0.70
2022-08-04T14:40:52.162Z,0.65
2022-08-04T14:44:02.386Z,1.05
2022-08-04T14:47:06.203Z,2.42
2022-08-04T14:50:16.449Z,0.80
2022-08-04T14:53:28.129Z,0.65
2022-08-04T14:56:45.947Z,0.77
2022-08-04T15:00:02.390Z,0.70
2022-08-04T15:03:06.176Z,1.02
2022-08-04T15:06:15.218Z,0.93
2022-08-04T15:09:24.233Z,0.82
2022-08-04T15:12:25.328Z,0.95
2022-08-04T15:15:36.508Z,0.85
2022-08-04T15:18:39.451Z,0.70
2022-08-04T15:21:42.167Z,0.80
2022-08-04T15:24:43.209Z,0.70
2022-08-04T15:27:49.199Z,1.30
2022-08-04T15:30:53.581Z,0.60
2022-08-04T15:33:55.172Z,0.82
2022-08-04T15:37:11.181Z,0.65
2022-08-04T15:40:26.918Z,0.50
2022-08-04T15:43:55.326Z,0.50
2022-08-04T15:47:02.208Z,0.50
2022-08-04T15:50:28.695Z,0.77
2022-08-04T15:53:36.508Z,0.65
2022-08-04T15:57:01.156Z,0.95
2022-08-04T16:00:14.946Z,0.90
2022-08-04T16:03:16.156Z,0.80
2022-08-04T16:06:23.249Z,0.73
2022-08-04T16:09:45.081Z,0.70
2022-08-04T16:13:07.219Z,1.13
2022-08-04T16:16:10.242Z,0.52
2022-08-04T16:19:43.232Z,0.43
2022-08-04T16:22:53.221Z,0.80
2022-08-04T16:25:59.265Z,0.60
2022-08-04T16:29:00.176Z,0.88
2022-08-04T16:32:35.251Z,0.43
2022-08-04T16:35:42.465Z,0.80
2022-08-04T16:38:43.201Z,0.70
2022-08-04T16:41:56.187Z,0.80
2022-08-04T16:44:57.221Z,0.50
2022-08-04T16:48:01.363Z,0.60
2022-08-04T16:51:07.268Z,0.88
2022-08-04T16:54:08.252Z,0.90
2022-08-04T16:57:09.265Z,0.90
2022-08-04T17:00:10.264Z,0.68
2022-08-04T17:03:11.587Z,0.77
2022-08-04T17:06:21.187Z,0.55
2022-08-04T17:09:32.272Z,0.60
2022-08-04T17:12:33.424Z,0.70
2022-08-04T17:15:36.233Z,0.65
2022-08-04T17:18:46.217Z,0.60
2022-08-04T17:21:50.285Z,0.52
2022-08-04T17:24:52.274Z,0.50
2022-08-04T17:28:10.862Z,0.68
2022-08-04T17:31:19.276Z,0.65
2022-08-04T17:34:28.400Z,0.80
2022-08-04T17:37:39.299Z,1.08
2022-08-04T17:40:42.221Z,0.52
2022-08-04T17:44:03.828Z,0.73
2022-08-04T17:47:12.822Z,0.52
2022-08-04T17:50:23.304Z,0.35
2022-08-04T17:53:25.288Z,0.50
2022-08-04T17:57:04.305Z,0.57
2022-08-04T18:00:19.346Z,1.25
2022-08-04T18:03:23.075Z,0.70
2022-08-04T18:06:27.300Z,1.20
2022-08-04T18:10:01.873Z,0.55
2022-08-04T18:12:57.241Z,0.73
2022-08-04T18:15:59.249Z,0.60
2022-08-04T18:19:21.297Z,0.50
2022-08-04T18:22:16.732Z,0.63
2022-08-04T18:25:50.479Z,0.50
2022-08-04T18:28:54.295Z,0.43
2022-08-04T18:31:48.419Z,0.50
2022-08-04T18:34:54.836Z,1.27
2022-08-04T18:38:06.591Z,0.90
2022-08-04T18:41:12.392Z,0.68
2022-08-04T18:44:13.754Z,0.73
2022-08-04T18:47:22.135Z,1.25
2022-08-04T18:51:01.880Z,0.45
2022-08-04T18:53:45.352Z,0.60
2022-08-04T18:57:24.490Z,0.68
2022-08-04T19:00:21.360Z,0.80
2022-08-04T19:03:24.353Z,0.73
2022-08-04T19:06:26.090Z,0.70
2022-08-04T19:09:21.866Z,0.52
2022-08-04T19:12:27.373Z,0.70
2022-08-04T19:15:34.000Z,0.80
2022-08-04T19:18:36.571Z,1.00
2022-08-04T19:22:00.538Z,0.98
2022-08-04T19:24:59.357Z,0.70
2022-08-04T19:28:00.295Z,0.70
2022-08-04T19:31:02.347Z,1.35
2022-08-04T19:34:04.759Z,0.80
2022-08-04T19:37:08.363Z,0.80
2022-08-04T19:43:34.368Z,1.03
2022-08-04T19:46:36.364Z,0.80
2022-08-04T19:50:04.745Z,1.08
2022-08-04T19:52:59.494Z,1.13
2022-08-04T19:56:01.307Z,1.13
2022-08-04T19:59:02.345Z,1.05
2022-08-04T20:02:03.322Z,1.20
2022-08-04T20:05:04.489Z,1.05
2022-08-04T20:08:09.382Z,1.13
2022-08-04T20:11:11.307Z,1.38
2022-08-04T20:14:12.347Z,1.10
2022-08-04T20:17:17.918Z,1.33
2022-08-04T20:20:19.332Z,1.30
2022-08-04T20:23:47.793Z,1.10
2022-08-04T20:26:34.383Z,1.90
2022-08-04T20:29:40.964Z,1.65
2022-08-04T20:32:44.392Z,1.33
2022-08-04T20:36:05.665Z,1.13
2022-08-04T20:39:09.651Z,1.38
2022-08-04T20:42:11.630Z,1.17
2022-08-04T20:45:16.280Z,1.27
2022-08-04T20:48:17.501Z,1.25
2022-08-04T20:51:19.411Z,1.38
2022-08-04T20:54:26.847Z,2.92
2022-08-04T20:57:48.878Z,1.30
2022-08-04T21:00:53.339Z,1.52
2022-08-04T21:04:27.140Z,1.80
2022-08-04T21:07:31.340Z,1.30
2022-08-04T21:10:41.428Z,1.00
2022-08-04T21:13:52.325Z,1.60
2022-08-04T21:16:54.249Z,2.40
2022-08-04T21:19:57.356Z,1.95
2022-08-04T21:22:52.412Z,1.50
2022-08-04T21:25:58.057Z,1.60
2022-08-04T21:28:58.366Z,2.08
2022-08-04T21:32:00.501Z,2.00
2022-08-04T21:35:05.266Z,1.90
2022-08-04T21:38:17.203Z,1.85
2022-08-04T21:41:20.427Z,1.95
2022-08-04T21:44:26.434Z,2.00
2022-08-04T21:47:37.393Z,1.92
2022-08-04T21:50:50.284Z,2.08
2022-08-04T21:53:54.659Z,2.53
2022-08-04T21:56:55.498Z,1.85
2022-08-04T21:59:56.440Z,1.98
2022-08-04T22:03:01.430Z,1.90
2022-08-04T22:06:02.393Z,1.90
2022-08-04T22:09:03.567Z,2.03
2022-08-04T22:12:04.478Z,2.40
2022-08-04T22:15:23.111Z,1.83
2022-08-04T22:18:27.840Z,2.03
2022-08-04T22:21:28.427Z,2.10
2022-08-04T22:24:29.943Z,2.40
2022-08-04T22:27:55.046Z,2.50
2022-08-04T22:30:56.397Z,2.22
2022-08-04T22:33:59.455Z,2.33
2022-08-04T22:37:00.414Z,2.97
2022-08-04T22:40:01.452Z,1.92
2022-08-04T22:43:07.509Z,1.95
2022-08-04T22:46:31.400Z,2.45
2022-08-04T22:49:32.671Z,2.63
2022-08-04T22:52:33.409Z,2.63
2022-08-04T22:56:07.231Z,2.45
2022-08-04T22:58:57.418Z,2.92
2022-08-04T23:02:00.496Z,2.85
2022-08-04T23:05:02.466Z,2.85
2022-08-04T23:08:05.174Z,2.15
2022-08-04T23:14:31.492Z,3.53
2022-08-04T23:17:47.800Z,3.08
2022-08-04T23:20:49.483Z,2.33
2022-08-04T23:24:01.049Z,3.38
2022-08-04T23:27:03.520Z,2.40
2022-08-04T23:34:08.790Z,2.25
2022-08-04T23:37:10.212Z,2.28
2022-08-04T23:40:30.191Z,2.13
2022-08-04T23:43:49.288Z,2.65
2022-08-04T23:46:50.838Z,2.40
2022-08-04T23:49:54.650Z,1.90
2022-08-04T23:52:59.818Z,2.08
2022-08-04T23:56:00.522Z,2.22
2022-08-04T23:59:04.871Z,2.20
